sensor_id;sensor_type;location;lat;lon;timestamp;pressure;altitude;pressure_sealevel;temperature
64600;BMP280;6553;48.412;9.514;2023-10-13T00:00:30;71760.59;;;20.79
64600;BMP280;6553;48.412;9.514;2023-10-13T00:02:59;71768.41;;;20.79
64600;BMP280;6553;48.412;9.514;2023-10-13T00:05:32;71763.25;;;20.82
64600;BMP280;6553;48.412;9.514;2023-10-13T00:08:03;71764.44;;;20.80
64600;BMP280;6553;48.412;9.514;2023-10-13T00:10:30;71762.72;;;20.81
64600;BMP280;6553;48.412;9.514;2023-10-13T00:12:56;71774.88;;;20.82
64600;BMP280;6553;48.412;9.514;2023-10-13T00:15:42;71770.41;;;20.83
64600;BMP280;6553;48.412;9.514;2023-10-13T00:18:28;71761.00;;;20.82
64600;BMP280;6553;48.412;9.514;2023-10-13T00:21:02;71759.94;;;20.81
64600;BMP280;6553;48.412;9.514;2023-10-13T00:23:41;71763.25;;;20.82
64600;BMP280;6553;48.412;9.514;2023-10-13T00:26:22;71765.72;;;20.76
64600;BMP280;6553;48.412;9.514;2023-10-13T00:29:00;71765.63;;;20.79
64600;BMP280;6553;48.412;9.514;2023-10-13T00:31:37;71767.22;;;20.80
64600;BMP280;6553;48.412;9.514;2023-10-13T00:34:06;71767.75;;;20.81
64600;BMP280;6553;48.412;9.514;2023-10-13T00:36:43;71769.34;;;20.82
64600;BMP280;6553;48.412;9.514;2023-10-13T00:39:15;71767.84;;;20.78
64600;BMP280;6553;48.412;9.514;2023-10-13T00:41:43;71764.53;;;20.78
64600;BMP280;6553;48.412;9.514;2023-10-13T00:44:19;71764.53;;;20.78
64600;BMP280;6553;48.412;9.514;2023-10-13T00:47:04;71764.44;;;20.80
64600;BMP280;6553;48.412;9.514;2023-10-13T00:49:34;71766.28;;;20.77
64600;BMP280;6553;48.412;9.514;2023-10-13T00:52:06;71764.03;;;20.77
64600;BMP280;6553;48.412;9.514;2023-10-13T00:54:37;71761.78;;;20.78
64600;BMP280;6553;48.412;9.514;2023-10-13T00:57:05;71764.53;;;20.78
64600;BMP280;6553;48.412;9.514;2023-10-13T00:59:37;71767.31;;;20.78
64600;BMP280;6553;48.412;9.514;2023-10-13T01:02:03;71766.28;;;20.77
64600;BMP280;6553;48.412;9.514;2023-10-13T01:04:48;71755.72;;;20.77
64600;BMP280;6553;48.412;9.514;2023-10-13T01:07:15;71762.31;;;20.78
64600;BMP280;6553;48.412;9.514;2023-10-13T01:09:42;71762.84;;;20.79
64600;BMP280;6553;48.412;9.514;2023-10-13T01:12:08;71760.19;;;20.76
64600;BMP280;6553;48.412;9.514;2023-10-13T01:14:34;71745.19;;;20.65
64600;BMP280;6553;48.412;9.514;2023-10-13T01:17:01;71757.41;;;20.76
64600;BMP280;6553;48.412;9.514;2023-10-13T01:19:28;71766.28;;;20.77
64600;BMP280;6553;48.412;9.514;2023-10-13T01:21:55;71756.34;;;20.75
64600;BMP280;6553;48.412;9.514;2023-10-13T01:24:32;71760.19;;;20.76
64600;BMP280;6553;48.412;9.514;2023-10-13T01:27:06;71761.25;;;20.77
64600;BMP280;6553;48.412;9.514;2023-10-13T01:29:47;71764.13;;;20.75
64600;BMP280;6553;48.412;9.514;2023-10-13T01:32:35;71759.13;;;20.75
64600;BMP280;6553;48.412;9.514;2023-10-13T01:35:09;71755.81;;;20.75
64600;BMP280;6553;48.412;9.514;2023-10-13T01:37:35;71758.06;;;20.74
64600;BMP280;6553;48.412;9.514;2023-10-13T01:40:01;71752.63;;;20.72
64600;BMP280;6553;48.412;9.514;2023-10-13T01:42:27;71763.09;;;20.74
64600;BMP280;6553;48.412;9.514;2023-10-13T01:44:53;71757.53;;;20.74
64600;BMP280;6553;48.412;9.514;2023-10-13T01:47:32;71754.88;;;20.71
64600;BMP280;6553;48.412;9.514;2023-10-13T01:50:01;71756.47;;;20.73
64600;BMP280;6553;48.412;9.514;2023-10-13T01:52:39;71752.00;;;20.74
64600;BMP280;6553;48.412;9.514;2023-10-13T01:55:08;71755.41;;;20.72
64600;BMP280;6553;48.412;9.514;2023-10-13T01:57:36;71757.13;;;20.71
64600;BMP280;6553;48.412;9.514;2023-10-13T02:00:01;71757.13;;;20.71
64600;BMP280;6553;48.412;9.514;2023-10-13T02:02:37;71758.84;;;20.70
64600;BMP280;6553;48.412;9.514;2023-10-13T02:05:11;71759.78;;;20.73
64600;BMP280;6553;48.412;9.514;2023-10-13T02:07:43;71752.22;;;20.69
64600;BMP280;6553;48.412;9.514;2023-10-13T02:10:12;71756.47;;;20.73
64600;BMP280;6553;48.412;9.514;2023-10-13T02:12:39;71757.13;;;20.71
64600;BMP280;6553;48.412;9.514;2023-10-13T02:15:12;71760.84;;;20.74
64600;BMP280;6553;48.412;9.514;2023-10-13T02:25:36;71752.09;;;20.71
64600;BMP280;6553;48.412;9.514;2023-10-13T02:28:09;71751.56;;;20.71
64600;BMP280;6553;48.412;9.514;2023-10-13T02:30:44;71757.13;;;20.71
64600;BMP280;6553;48.412;9.514;2023-10-13T02:33:16;71758.31;;;20.69
64600;BMP280;6553;48.412;9.514;2023-10-13T02:35:50;71747.22;;;20.69
64600;BMP280;6553;48.412;9.514;2023-10-13T02:38:20;71757.66;;;20.71
64600;BMP280;6553;48.412;9.514;2023-10-13T02:40:54;71747.97;;;20.65
64600;BMP280;6553;48.412;9.514;2023-10-13T02:43:22;71748.38;;;20.68
64600;BMP280;6553;48.412;9.514;2023-10-13T02:45:54;71755.53;;;20.69
64600;BMP280;6553;48.412;9.514;2023-10-13T02:48:27;71753.28;;;20.70
64600;BMP280;6553;48.412;9.514;2023-10-13T02:51:07;71748.38;;;20.68
64600;BMP280;6553;48.412;9.514;2023-10-13T02:53:45;71751.06;;;20.70
64600;BMP280;6553;48.412;9.514;2023-10-13T02:56:14;71752.88;;;20.67
64600;BMP280;6553;48.412;9.514;2023-10-13T02:58:50;71749.97;;;20.69
64600;BMP280;6553;48.412;9.514;2023-10-13T03:01:22;71749.56;;;20.66
64600;BMP280;6553;48.412;9.514;2023-10-13T03:03:54;71747.84;;;20.67
64600;BMP280;6553;48.412;9.514;2023-10-13T03:06:23;71747.84;;;20.67
64600;BMP280;6553;48.412;9.514;2023-10-13T03:09:04;71755.66;;;20.67
64600;BMP280;6553;48.412;9.514;2023-10-13T03:11:51;71750.19;;;20.64
64600;BMP280;6553;48.412;9.514;2023-10-13T03:14:22;71744.56;;;20.67
64600;BMP280;6553;48.412;9.514;2023-10-13T03:17:02;71748.63;;;20.63
64600;BMP280;6553;48.412;9.514;2023-10-13T03:19:31;71757.88;;;20.66
64600;BMP280;6553;48.412;9.514;2023-10-13T03:22:06;71753.41;;;20.67
64600;BMP280;6553;48.412;9.514;2023-10-13T03:24:39;71742.53;;;20.62
64600;BMP280;6553;48.412;9.514;2023-10-13T03:27:16;71755.13;;;20.66
64600;BMP280;6553;48.412;9.514;2023-10-13T03:29:49;71749.03;;;20.66
64600;BMP280;6553;48.412;9.514;2023-10-13T03:32:20;71749.03;;;20.66
64600;BMP280;6553;48.412;9.514;2023-10-13T03:34:47;71746.25;;;20.66
64600;BMP280;6553;48.412;9.514;2023-10-13T03:37:21;71750.19;;;20.64
64600;BMP280;6553;48.412;9.514;2023-10-13T03:40:13;71743.09;;;20.63
64600;BMP280;6553;48.412;9.514;2023-10-13T03:43:02;71748.63;;;20.63
64600;BMP280;6553;48.412;9.514;2023-10-13T03:45:36;71752.97;;;20.64
64600;BMP280;6553;48.412;9.514;2023-10-13T03:48:10;71753.63;;;20.62
64600;BMP280;6553;48.412;9.514;2023-10-13T03:50:40;71744.78;;;20.62
64600;BMP280;6553;48.412;9.514;2023-10-13T03:53:14;71745.31;;;20.62
64600;BMP280;6553;48.412;9.514;2023-10-13T03:55:40;71747.97;;;20.65
64600;BMP280;6553;48.412;9.514;2023-10-13T03:58:14;71750.19;;;20.64
64600;BMP280;6553;48.412;9.514;2023-10-13T04:00:42;71745.97;;;20.60
64600;BMP280;6553;48.412;9.514;2023-10-13T04:03:08;71748.22;;;20.60
64600;BMP280;6553;48.412;9.514;2023-10-13T04:05:35;71745.31;;;20.62
64600;BMP280;6553;48.412;9.514;2023-10-13T04:08:20;71741.06;;;20.58
64600;BMP280;6553;48.412;9.514;2023-10-13T04:11:06;71743.31;;;20.58
64600;BMP280;6553;48.412;9.514;2023-10-13T04:13:58;71748.63;;;20.63
64600;BMP280;6553;48.412;9.514;2023-10-13T04:16:42;71735.53;;;20.58
64600;BMP280;6553;48.412;9.514;2023-10-13T04:19:19;71744.38;;;20.59
64600;BMP280;6553;48.412;9.514;2023-10-13T04:21:54;71741.06;;;20.58
64600;BMP280;6553;48.412;9.514;2023-10-13T04:24:25;71741.19;;;20.55
64600;BMP280;6553;48.412;9.514;2023-10-13T04:27:00;71743.19;;;20.60
64600;BMP280;6553;48.412;9.514;2023-10-13T04:29:55;71744.38;;;20.59
64600;BMP280;6553;48.412;9.514;2023-10-13T04:32:36;71743.84;;;20.58
64600;BMP280;6553;48.412;9.514;2023-10-13T04:35:11;71737.22;;;20.57
64600;BMP280;6553;48.412;9.514;2023-10-13T04:37:40;71738.94;;;20.56
64600;BMP280;6553;48.412;9.514;2023-10-13T04:40:27;71733.94;;;20.57
64600;BMP280;6553;48.412;9.514;2023-10-13T04:43:01;71740.13;;;20.54
64600;BMP280;6553;48.412;9.514;2023-10-13T04:45:42;71742.38;;;20.54
64600;BMP280;6553;48.412;9.514;2023-10-13T04:48:19;71732.88;;;20.55
64600;BMP280;6553;48.412;9.514;2023-10-13T04:50:47;71736.28;;;20.53
64600;BMP280;6553;48.412;9.514;2023-10-13T04:53:17;71736.72;;;20.57
64600;BMP280;6553;48.412;9.514;2023-10-13T04:56:00;71739.47;;;20.57
64600;BMP280;6553;48.412;9.514;2023-10-13T04:58:30;71735.63;;;20.55
64600;BMP280;6553;48.412;9.514;2023-10-13T05:01:02;71738.41;;;20.55
64600;BMP280;6553;48.412;9.514;2023-10-13T05:03:48;71741.19;;;20.55
64600;BMP280;6553;48.412;9.514;2023-10-13T05:06:20;71743.44;;;20.55
64600;BMP280;6553;48.412;9.514;2023-10-13T05:09:04;71742.91;;;20.54
64600;BMP280;6553;48.412;9.514;2023-10-13T05:11:48;71739.47;;;20.57
64600;BMP280;6553;48.412;9.514;2023-10-13T05:14:40;71742.78;;;20.57
64600;BMP280;6553;48.412;9.514;2023-10-13T05:17:24;71738.41;;;20.55
64600;BMP280;6553;48.412;9.514;2023-10-13T05:20:09;71736.28;;;20.53
64600;BMP280;6553;48.412;9.514;2023-10-13T05:22:53;71740.66;;;20.55
64600;BMP280;6553;48.412;9.514;2023-10-13T05:25:38;71741.72;;;20.56
64600;BMP280;6553;48.412;9.514;2023-10-13T05:28:22;71734.69;;;20.52
64600;BMP280;6553;48.412;9.514;2023-10-13T05:31:08;71738.94;;;20.56
64600;BMP280;6553;48.412;9.514;2023-10-13T05:33:52;71741.19;;;20.55
64600;BMP280;6553;48.412;9.514;2023-10-13T05:36:37;71735.13;;;20.55
64600;BMP280;6553;48.412;9.514;2023-10-13T05:39:23;71734.03;;;20.54
64600;BMP280;6553;48.412;9.514;2023-10-13T05:42:27;71736.28;;;20.53
64600;BMP280;6553;48.412;9.514;2023-10-13T05:45:11;71737.34;;;20.54
64600;BMP280;6553;48.412;9.514;2023-10-13T05:47:43;71740.78;;;20.52
64600;BMP280;6553;48.412;9.514;2023-10-13T05:50:10;71733.09;;;20.50
64600;BMP280;6553;48.412;9.514;2023-10-13T05:52:49;71733.50;;;20.53
64600;BMP280;6553;48.412;9.514;2023-10-13T05:55:29;71734.16;;;20.51
64600;BMP280;6553;48.412;9.514;2023-10-13T05:58:14;71734.03;;;20.54
64600;BMP280;6553;48.412;9.514;2023-10-13T06:00:59;71739.06;;;20.53
64600;BMP280;6553;48.412;9.514;2023-10-13T06:03:43;71734.69;;;20.52
64600;BMP280;6553;48.412;9.514;2023-10-13T06:06:28;71737.47;;;20.52
64600;BMP280;6553;48.412;9.514;2023-10-13T06:09:12;71738.53;;;20.53
64600;BMP280;6553;48.412;9.514;2023-10-13T06:11:57;71733.63;;;20.51
64600;BMP280;6553;48.412;9.514;2023-10-13T06:14:45;71734.69;;;20.52
64600;BMP280;6553;48.412;9.514;2023-10-13T06:17:30;71739.06;;;20.53
64600;BMP280;6553;48.412;9.514;2023-10-13T06:20:14;71732.44;;;20.52
64600;BMP280;6553;48.412;9.514;2023-10-13T06:22:59;71735.22;;;20.52
64600;BMP280;6553;48.412;9.514;2023-10-13T06:25:43;71735.88;;;20.50
64600;BMP280;6553;48.412;9.514;2023-10-13T06:28:34;71733.00;;;20.53
64600;BMP280;6553;48.412;9.514;2023-10-13T06:31:11;71734.59;;;20.54
64600;BMP280;6553;48.412;9.514;2023-10-13T06:33:47;71741.31;;;20.53
64600;BMP280;6553;48.412;9.514;2023-10-13T06:36:13;71730.88;;;20.51
64600;BMP280;6553;48.412;9.514;2023-10-13T06:38:39;71740.78;;;20.52
64600;BMP280;6553;48.412;9.514;2023-10-13T06:41:06;71737.34;;;20.54
64600;BMP280;6553;48.412;9.514;2023-10-13T06:43:36;71732.44;;;20.52
64600;BMP280;6553;48.412;9.514;2023-10-13T06:46:12;71735.22;;;20.52
64600;BMP280;6553;48.412;9.514;2023-10-13T06:48:42;71730.31;;;20.50
64600;BMP280;6553;48.412;9.514;2023-10-13T06:51:09;71739.19;;;20.51
64600;BMP280;6553;48.412;9.514;2023-10-13T06:53:45;71737.88;;;20.55
64600;BMP280;6553;48.412;9.514;2023-10-13T06:56:17;71735.75;;;20.53
64600;BMP280;6553;48.412;9.514;2023-10-13T06:58:54;71731.81;;;20.54
64600;BMP280;6553;48.412;9.514;2023-10-13T07:01:27;71744.78;;;20.62
64600;BMP280;6553;48.412;9.514;2023-10-13T07:03:53;71757.50;;;20.63
64600;BMP280;6553;48.412;9.514;2023-10-13T07:06:22;71743.09;;;20.63
64600;BMP280;6553;48.412;9.514;2023-10-13T07:08:49;71749.03;;;20.66
64600;BMP280;6553;48.412;9.514;2023-10-13T07:11:27;71746.41;;;20.63
64600;BMP280;6553;48.412;9.514;2023-10-13T07:14:03;71752.97;;;20.64
64600;BMP280;6553;48.412;9.514;2023-10-13T07:17:05;71744.16;;;20.64
64600;BMP280;6553;48.412;9.514;2023-10-13T07:19:33;71745.84;;;20.63
64600;BMP280;6553;48.412;9.514;2023-10-13T07:22:01;71738.69;;;20.61
64600;BMP280;6553;48.412;9.514;2023-10-13T07:24:47;71744.78;;;20.62
64600;BMP280;6553;48.412;9.514;2023-10-13T07:27:21;71749.25;;;20.61
64600;BMP280;6553;48.412;9.514;2023-10-13T07:29:56;71744.78;;;20.62
64600;BMP280;6553;48.412;9.514;2023-10-13T07:32:42;71745.84;;;20.63
64600;BMP280;6553;48.412;9.514;2023-10-13T07:35:12;71744.16;;;20.64
64600;BMP280;6553;48.412;9.514;2023-10-13T07:37:42;71739.88;;;20.60
64600;BMP280;6553;48.412;9.514;2023-10-13T07:40:11;71747.03;;;20.61
64600;BMP280;6553;48.412;9.514;2023-10-13T07:42:59;71745.84;;;20.63
64600;BMP280;6553;48.412;9.514;2023-10-13T07:45:40;71742.53;;;20.62
64600;BMP280;6553;48.412;9.514;2023-10-13T07:48:11;71752.22;;;20.69
64600;BMP280;6553;48.412;9.514;2023-10-13T07:51:05;71754.75;;;20.74
64600;BMP280;6553;48.412;9.514;2023-10-13T07:53:39;71758.59;;;20.75
64600;BMP280;6553;48.412;9.514;2023-10-13T07:56:07;71754.22;;;20.73
64600;BMP280;6553;48.412;9.514;2023-10-13T07:58:39;71762.44;;;20.76
64600;BMP280;6553;48.412;9.514;2023-10-13T08:01:24;71759.00;;;20.78
64600;BMP280;6553;48.412;9.514;2023-10-13T08:03:51;71764.53;;;20.78
64600;BMP280;6553;48.412;9.514;2023-10-13T08:06:30;71766.81;;;20.77
64600;BMP280;6553;48.412;9.514;2023-10-13T08:08:56;71759.53;;;20.78
64600;BMP280;6553;48.412;9.514;2023-10-13T08:11:34;71756.75;;;20.78
64600;BMP280;6553;48.412;9.514;2023-10-13T08:14:02;71772.25;;;20.80
64600;BMP280;6553;48.412;9.514;2023-10-13T08:16:39;71767.75;;;20.81
64600;BMP280;6553;48.412;9.514;2023-10-13T08:19:18;71762.31;;;20.78
64600;BMP280;6553;48.412;9.514;2023-10-13T08:21:47;71765.63;;;20.79
64600;BMP280;6553;48.412;9.514;2023-10-13T08:24:18;71761.66;;;20.80
64600;BMP280;6553;48.412;9.514;2023-10-13T08:26:53;71763.91;;;20.80
64600;BMP280;6553;48.412;9.514;2023-10-13T08:29:37;71767.09;;;20.83
64600;BMP280;6553;48.412;9.514;2023-10-13T08:32:26;71764.97;;;20.81
64600;BMP280;6553;48.412;9.514;2023-10-13T08:34:59;71767.09;;;20.83
64600;BMP280;6553;48.412;9.514;2023-10-13T08:37:31;71764.31;;;20.83
64600;BMP280;6553;48.412;9.514;2023-10-13T08:40:23;71764.03;;;20.77
64600;BMP280;6553;48.412;9.514;2023-10-13T08:43:12;71762.72;;;20.81
64600;BMP280;6553;48.412;9.514;2023-10-13T08:45:41;71764.44;;;20.80
64600;BMP280;6553;48.412;9.514;2023-10-13T08:48:13;71771.56;;;20.82
64600;BMP280;6553;48.412;9.514;2023-10-13T08:50:48;71768.16;;;20.84
64600;BMP280;6553;48.412;9.514;2023-10-13T08:53:24;71764.31;;;20.83
64600;BMP280;6553;48.412;9.514;2023-10-13T08:56:07;71769.88;;;20.83
64600;BMP280;6553;48.412;9.514;2023-10-13T08:58:45;71777.84;;;20.90
64600;BMP280;6553;48.412;9.514;2023-10-13T09:01:28;71776.38;;;20.86
64600;BMP280;6553;48.412;9.514;2023-10-13T09:04:05;71769.75;;;20.85
64600;BMP280;6553;48.412;9.514;2023-10-13T09:06:58;71772.66;;;20.83
64600;BMP280;6553;48.412;9.514;2023-10-13T09:12:15;71772.50;;;20.85
64600;BMP280;6553;48.412;9.514;2023-10-13T09:14:44;71774.75;;;20.85
64600;BMP280;6553;48.412;9.514;2023-10-13T09:17:27;71769.19;;;20.85
64600;BMP280;6553;48.412;9.514;2023-10-13T09:20:09;71766.44;;;20.85
64600;BMP280;6553;48.412;9.514;2023-10-13T09:22:49;71764.31;;;20.83
64600;BMP280;6553;48.412;9.514;2023-10-13T09:25:38;71767.09;;;20.83
64600;BMP280;6553;48.412;9.514;2023-10-13T09:28:16;71774.75;;;20.85
64600;BMP280;6553;48.412;9.514;2023-10-13T09:30:52;71776.38;;;20.86
64600;BMP280;6553;48.412;9.514;2023-10-13T09:33:26;71769.66;;;20.88
64600;BMP280;6553;48.412;9.514;2023-10-13T09:36:05;71775.81;;;20.86
64600;BMP280;6553;48.412;9.514;2023-10-13T09:38:38;71768.78;;;20.82
64600;BMP280;6553;48.412;9.514;2023-10-13T09:41:07;71770.28;;;20.86
64600;BMP280;6553;48.412;9.514;2023-10-13T09:43:52;71770.28;;;20.86
64600;BMP280;6553;48.412;9.514;2023-10-13T09:46:27;71772.50;;;20.85
64600;BMP280;6553;48.412;9.514;2023-10-13T09:49:14;71769.09;;;20.87
64600;BMP280;6553;48.412;9.514;2023-10-13T09:51:41;71774.00;;;20.89
64600;BMP280;6553;48.412;9.514;2023-10-13T09:54:34;71774.00;;;20.89
64600;BMP280;6553;48.412;9.514;2023-10-13T09:57:13;71776.91;;;20.87
64600;BMP280;6553;48.412;9.514;2023-10-13T09:59:49;71776.75;;;20.89
64600;BMP280;6553;48.412;9.514;2023-10-13T10:02:18;71769.66;;;20.88
64600;BMP280;6553;48.412;9.514;2023-10-13T10:09:10;71780.06;;;20.90
64600;BMP280;6553;48.412;9.514;2023-10-13T10:15:04;71776.66;;;20.92
64600;BMP280;6553;48.412;9.514;2023-10-13T10:17:43;71768.97;;;20.90
64600;BMP280;6553;48.412;9.514;2023-10-13T10:20:10;71773.88;;;20.92
64600;BMP280;6553;48.412;9.514;2023-10-13T10:22:59;71772.81;;;20.91
64600;BMP280;6553;48.412;9.514;2023-10-13T10:25:33;71774.66;;;20.87
64600;BMP280;6553;48.412;9.514;2023-10-13T10:28:05;71777.84;;;20.90
64600;BMP280;6553;48.412;9.514;2023-10-13T10:30:38;71779.97;;;20.92
64600;BMP280;6553;48.412;9.514;2023-10-13T10:33:05;71772.16;;;20.93
64600;BMP280;6553;48.412;9.514;2023-10-13T10:35:43;71776.13;;;20.91
64600;BMP280;6553;48.412;9.514;2023-10-13T10:38:15;71778.25;;;20.93
64600;BMP280;6553;48.412;9.514;2023-10-13T10:41:00;71778.13;;;20.96
64600;BMP280;6553;48.412;9.514;2023-10-13T10:43:29;71782.63;;;20.95
64600;BMP280;6553;48.412;9.514;2023-10-13T10:46:15;71777.19;;;20.92
64600;BMP280;6553;48.412;9.514;2023-10-13T10:48:45;71788.03;;;20.97
64600;BMP280;6553;48.412;9.514;2023-10-13T10:51:13;71778.25;;;20.93
64600;BMP280;6553;48.412;9.514;2023-10-13T10:53:50;71783.03;;;20.98
64600;BMP280;6553;48.412;9.514;2023-10-13T10:56:22;71785.28;;;20.97
64600;BMP280;6553;48.412;9.514;2023-10-13T10:59:06;71780.25;;;20.98
64600;BMP280;6553;48.412;9.514;2023-10-13T11:01:46;71774.31;;;20.95
64600;BMP280;6553;48.412;9.514;2023-10-13T11:04:19;71787.50;;;20.97
64600;BMP280;6553;48.412;9.514;2023-10-13T11:06:59;71786.88;;;20.99
64600;BMP280;6553;48.412;9.514;2023-10-13T11:09:27;71785.81;;;20.98
64600;BMP280;6553;48.412;9.514;2023-10-13T11:14:45;71785.16;;;21.00
64600;BMP280;6553;48.412;9.514;2023-10-13T11:17:22;71786.34;;;20.98
64600;BMP280;6553;48.412;9.514;2023-10-13T11:19:52;71785.69;;;21.00
64600;BMP280;6553;48.412;9.514;2023-10-13T11:22:21;71785.69;;;21.00
64600;BMP280;6553;48.412;9.514;2023-10-13T11:25:06;71790.06;;;21.02
64600;BMP280;6553;48.412;9.514;2023-10-13T11:27:37;71788.47;;;21.00
64600;BMP280;6553;48.412;9.514;2023-10-13T11:30:15;71784.50;;;21.02
64600;BMP280;6553;48.412;9.514;2023-10-13T11:32:56;71787.28;;;21.02
64600;BMP280;6553;48.412;9.514;2023-10-13T11:35:22;71788.34;;;21.03
64600;BMP280;6553;48.412;9.514;2023-10-13T11:37:51;71786.09;;;21.03
64600;BMP280;6553;48.412;9.514;2023-10-13T11:40:29;71794.28;;;21.06
64600;BMP280;6553;48.412;9.514;2023-10-13T11:49:04;71791.00;;;21.05
64600;BMP280;6553;48.412;9.514;2023-10-13T11:51:50;71787.69;;;21.05
64600;BMP280;6553;48.412;9.514;2023-10-13T11:54:19;71792.19;;;21.04
64600;BMP280;6553;48.412;9.514;2023-10-13T11:56:48;71793.78;;;21.05
64600;BMP280;6553;48.412;9.514;2023-10-13T11:59:14;71791.66;;;21.03
64600;BMP280;6553;48.412;9.514;2023-10-13T12:01:47;71789.94;;;21.04
64600;BMP280;6553;48.412;9.514;2023-10-13T12:04:33;71795.38;;;21.07
64600;BMP280;6553;48.412;9.514;2023-10-13T12:07:08;71784.91;;;21.05
64600;BMP280;6553;48.412;9.514;2023-10-13T12:09:48;71793.78;;;21.05
64600;BMP280;6553;48.412;9.514;2023-10-13T12:12:27;71788.22;;;21.05
64600;BMP280;6553;48.412;9.514;2023-10-13T12:14:54;71793.78;;;21.05
64600;BMP280;6553;48.412;9.514;2023-10-13T12:17:29;71789.81;;;21.07
64600;BMP280;6553;48.412;9.514;2023-10-13T12:20:01;71792.59;;;21.07
64600;BMP280;6553;48.412;9.514;2023-10-13T12:22:33;71788.34;;;21.03
64600;BMP280;6553;48.412;9.514;2023-10-13T12:25:11;71788.75;;;21.06
64600;BMP280;6553;48.412;9.514;2023-10-13T12:28:10;71791.53;;;21.06
64600;BMP280;6553;48.412;9.514;2023-10-13T12:30:47;71794.28;;;21.06
64600;BMP280;6553;48.412;9.514;2023-10-13T12:33:20;71797.47;;;21.09
64600;BMP280;6553;48.412;9.514;2023-10-13T12:36:07;71795.78;;;21.10
64600;BMP280;6553;48.412;9.514;2023-10-13T12:38:39;71792.47;;;21.09
64600;BMP280;6553;48.412;9.514;2023-10-13T12:41:19;71793.66;;;21.08
64600;BMP280;6553;48.412;9.514;2023-10-13T12:44:05;71798.00;;;21.09
64600;BMP280;6553;48.412;9.514;2023-10-13T12:46:51;71803.47;;;21.12
64600;BMP280;6553;48.412;9.514;2023-10-13T12:49:36;71797.91;;;21.12
64600;BMP280;6553;48.412;9.514;2023-10-13T12:52:09;71797.91;;;21.12
64600;BMP280;6553;48.412;9.514;2023-10-13T12:54:47;71802.41;;;21.11
64600;BMP280;6553;48.412;9.514;2023-10-13T12:57:28;71801.84;;;21.10
64600;BMP280;6553;48.412;9.514;2023-10-13T12:59:55;71797.91;;;21.12
64600;BMP280;6553;48.412;9.514;2023-10-13T13:02:26;71800.16;;;21.11
64600;BMP280;6553;48.412;9.514;2023-10-13T13:04:56;71798.94;;;21.13
64600;BMP280;6553;48.412;9.514;2023-10-13T13:07:28;71801.84;;;21.10
64600;BMP280;6553;48.412;9.514;2023-10-13T13:09:55;71795.16;;;21.12
64600;BMP280;6553;48.412;9.514;2023-10-13T13:12:25;71805.56;;;21.14
64600;BMP280;6553;48.412;9.514;2023-10-13T13:14:51;71798.53;;;21.10
64600;BMP280;6553;48.412;9.514;2023-10-13T13:17:21;71800.16;;;21.11
64600;BMP280;6553;48.412;9.514;2023-10-13T13:19:47;71802.94;;;21.11
64600;BMP280;6553;48.412;9.514;2023-10-13T13:22:12;71800.16;;;21.11
64600;BMP280;6553;48.412;9.514;2023-10-13T13:24:43;71804.50;;;21.13
64600;BMP280;6553;48.412;9.514;2023-10-13T13:27:11;71796.19;;;21.13
64600;BMP280;6553;48.412;9.514;2023-10-13T13:29:45;71801.09;;;21.15
64600;BMP280;6553;48.412;9.514;2023-10-13T13:32:11;71803.88;;;21.15
64600;BMP280;6553;48.412;9.514;2023-10-13T13:34:52;71797.25;;;21.14
64600;BMP280;6553;48.412;9.514;2023-10-13T13:37:30;71803.47;;;21.12
64600;BMP280;6553;48.412;9.514;2023-10-13T13:39:57;71798.94;;;21.13
64600;BMP280;6553;48.412;9.514;2023-10-13T13:42:40;71807.28;;;21.13
64600;BMP280;6553;48.412;9.514;2023-10-13T13:45:18;71806.66;;;21.15
64600;BMP280;6553;48.412;9.514;2023-10-13T13:47:53;71802.81;;;21.14
64600;BMP280;6553;48.412;9.514;2023-10-13T13:50:27;71801.72;;;21.13
64600;BMP280;6553;48.412;9.514;2023-10-13T13:52:58;71800.97;;;21.17
64600;BMP280;6553;48.412;9.514;2023-10-13T13:55:25;71809.81;;;21.18
64600;BMP280;6553;48.412;9.514;2023-10-13T13:57:56;71797.13;;;21.16
64600;BMP280;6553;48.412;9.514;2023-10-13T14:00:22;71803.34;;;21.14
64600;BMP280;6553;48.412;9.514;2023-10-13T14:03:07;71800.44;;;21.17
64600;BMP280;6553;48.412;9.514;2023-10-13T14:05:44;71795.53;;;21.15
64600;BMP280;6553;48.412;9.514;2023-10-13T14:08:11;71797.78;;;21.14
64600;BMP280;6553;48.412;9.514;2023-10-13T14:10:41;71796.19;;;21.13
64600;BMP280;6553;48.412;9.514;2023-10-13T14:13:25;71800.56;;;21.14
64600;BMP280;6553;48.412;9.514;2023-10-13T14:16:09;71800.56;;;21.14
64600;BMP280;6553;48.412;9.514;2023-10-13T14:18:47;71798.84;;;21.15
64600;BMP280;6553;48.412;9.514;2023-10-13T14:21:13;71812.19;;;21.15
64600;BMP280;6553;48.412;9.514;2023-10-13T14:23:49;71796.19;;;21.13
64600;BMP280;6553;48.412;9.514;2023-10-13T14:26:16;71804.28;;;21.18
64600;BMP280;6553;48.412;9.514;2023-10-13T14:28:55;71805.88;;;21.19
64600;BMP280;6553;48.412;9.514;2023-10-13T14:31:50;71799.91;;;21.16
64600;BMP280;6553;48.412;9.514;2023-10-13T14:34:16;71802.16;;;21.16
64600;BMP280;6553;48.412;9.514;2023-10-13T14:36:41;71802.16;;;21.16
64600;BMP280;6553;48.412;9.514;2023-10-13T14:39:14;71809.81;;;21.18
64600;BMP280;6553;48.412;9.514;2023-10-13T14:41:40;71794.19;;;21.08
64600;BMP280;6553;48.412;9.514;2023-10-13T14:44:06;71804.81;;;21.18
64600;BMP280;6553;48.412;9.514;2023-10-13T14:46:33;71801.50;;;21.18
64600;BMP280;6553;48.412;9.514;2023-10-13T14:49:05;71809.19;;;21.20
64600;BMP280;6553;48.412;9.514;2023-10-13T14:51:32;71810.91;;;21.19
64600;BMP280;6553;48.412;9.514;2023-10-13T14:53:59;71808.00;;;21.21
64600;BMP280;6553;48.412;9.514;2023-10-13T14:56:29;71800.44;;;21.17
64600;BMP280;6553;48.412;9.514;2023-10-13T14:58:55;71808.66;;;21.19
64600;BMP280;6553;48.412;9.514;2023-10-13T15:01:23;71803.75;;;21.17
64600;BMP280;6553;48.412;9.514;2023-10-13T15:03:54;71806.41;;;21.20
64600;BMP280;6553;48.412;9.514;2023-10-13T15:06:25;71805.88;;;21.19
64600;BMP280;6553;48.412;9.514;2023-10-13T15:08:57;71811.41;;;21.19
64600;BMP280;6553;48.412;9.514;2023-10-13T15:11:24;71805.88;;;21.19
64600;BMP280;6553;48.412;9.514;2023-10-13T15:13:56;71805.47;;;21.16
64600;BMP280;6553;48.412;9.514;2023-10-13T15:16:26;71804.16;;;21.20
64600;BMP280;6553;48.412;9.514;2023-10-13T15:18:54;71809.72;;;21.20
64600;BMP280;6553;48.412;9.514;2023-10-13T15:21:25;71809.59;;;21.23
64600;BMP280;6553;48.412;9.514;2023-10-13T15:24:04;71806.41;;;21.20
64600;BMP280;6553;48.412;9.514;2023-10-13T15:26:48;71809.72;;;21.20
64600;BMP280;6553;48.412;9.514;2023-10-13T15:29:18;71815.13;;;21.23
64600;BMP280;6553;48.412;9.514;2023-10-13T15:31:51;71814.09;;;21.22
64600;BMP280;6553;48.412;9.514;2023-10-13T15:34:28;71809.19;;;21.20